sensor_id;sensor_type;location;lat;lon;timestamp;P1;P2;P0
30342;PMS5003;17145;49.902;8.680;2023-02-01T00:00:38;44;32;
30342;PMS5003;17145;49.902;8.680;2023-02-01T00:03:05;24;23;
30342;PMS5003;17145;49.902;8.680;2023-02-01T00:05:32;26;25;
30342;PMS5003;17145;49.902;8.680;2023-02-01T00:08:00;33;25;
30342;PMS5003;17145;49.902;8.680;2023-02-01T00:10:28;29;25;
30342;PMS5003;17145;49.902;8.680;2023-02-01T00:12:55;25;23;
30342;PMS5003;17145;49.902;8.680;2023-02-01T00:15:22;28;25;
30342;PMS5003;17145;49.902;8.680;2023-02-01T00:17:52;29;27;
30342;PMS5003;17145;49.902;8.680;2023-02-01T00:20:20;27;24;
30342;PMS5003;17145;49.902;8.680;2023-02-01T00:22:47;31;25;
30342;PMS5003;17145;49.902;8.680;2023-02-01T00:25:14;33;33;
30342;PMS5003;17145;49.902;8.680;2023-02-01T00:27:42;27;24;
30342;PMS5003;17145;49.902;8.680;2023-02-01T00:30:10;25;24;
30342;PMS5003;17145;49.902;8.680;2023-02-01T00:32:38;27;22;
30342;PMS5003;17145;49.902;8.680;2023-02-01T00:35:06;25;22;
30342;PMS5003;17145;49.902;8.680;2023-02-01T00:37:35;37;28;
30342;PMS5003;17145;49.902;8.680;2023-02-01T00:40:02;26;25;
30342;PMS5003;17145;49.902;8.680;2023-02-01T00:42:30;29;28;
30342;PMS5003;17145;49.902;8.680;2023-02-01T00:44:57;28;24;
30342;PMS5003;17145;49.902;8.680;2023-02-01T00:47:25;30;26;
30342;PMS5003;17145;49.902;8.680;2023-02-01T00:49:52;32;29;
30342;PMS5003;17145;49.902;8.680;2023-02-01T00:52:20;28;28;
30342;PMS5003;17145;49.902;8.680;2023-02-01T00:54:47;29;25;
30342;PMS5003;17145;49.902;8.680;2023-02-01T00:57:15;38;26;
30342;PMS5003;17145;49.902;8.680;2023-02-01T00:59:42;33;24;
30342;PMS5003;17145;49.902;8.680;2023-02-01T01:02:09;28;26;
30342;PMS5003;17145;49.902;8.680;2023-02-01T01:04:37;25;24;
30342;PMS5003;17145;49.902;8.680;2023-02-01T01:07:04;29;28;
30342;PMS5003;17145;49.902;8.680;2023-02-01T01:09:31;27;21;
30342;PMS5003;17145;49.902;8.680;2023-02-01T01:11:59;26;25;
30342;PMS5003;17145;49.902;8.680;2023-02-01T01:14:26;39;28;
30342;PMS5003;17145;49.902;8.680;2023-02-01T01:16:54;28;25;
30342;PMS5003;17145;49.902;8.680;2023-02-01T01:19:21;32;29;
30342;PMS5003;17145;49.902;8.680;2023-02-01T01:21:49;27;25;
30342;PMS5003;17145;49.902;8.680;2023-02-01T01:24:17;29;28;
30342;PMS5003;17145;49.902;8.680;2023-02-01T01:26:44;29;25;
30342;PMS5003;17145;49.902;8.680;2023-02-01T01:29:12;24;22;
30342;PMS5003;17145;49.902;8.680;2023-02-01T01:31:39;28;25;
30342;PMS5003;17145;49.902;8.680;2023-02-01T01:34:08;29;26;
30342;PMS5003;17145;49.902;8.680;2023-02-01T01:36:35;26;25;
30342;PMS5003;17145;49.902;8.680;2023-02-01T01:39:02;28;28;
30342;PMS5003;17145;49.902;8.680;2023-02-01T01:41:30;29;24;
30342;PMS5003;17145;49.902;8.680;2023-02-01T01:43:59;25;22;
30342;PMS5003;17145;49.902;8.680;2023-02-01T01:46:28;25;24;
30342;PMS5003;17145;49.902;8.680;2023-02-01T01:49:01;24;22;
30342;PMS5003;17145;49.902;8.680;2023-02-01T01:51:32;28;26;
30342;PMS5003;17145;49.902;8.680;2023-02-01T01:54:05;25;24;
30342;PMS5003;17145;49.902;8.680;2023-02-01T01:56:38;29;28;
30342;PMS5003;17145;49.902;8.680;2023-02-01T01:59:07;27;25;
30342;PMS5003;17145;49.902;8.680;2023-02-01T02:01:35;26;26;
30342;PMS5003;17145;49.902;8.680;2023-02-01T02:04:03;25;23;
30342;PMS5003;17145;49.902;8.680;2023-02-01T02:06:34;29;25;
30342;PMS5003;17145;49.902;8.680;2023-02-01T02:09:07;45;44;
30342;PMS5003;17145;49.902;8.680;2023-02-01T02:11:34;22;20;
30342;PMS5003;17145;49.902;8.680;2023-02-01T02:14:02;25;24;
30342;PMS5003;17145;49.902;8.680;2023-02-01T02:16:38;30;26;
30342;PMS5003;17145;49.902;8.680;2023-02-01T02:22:06;36;30;
30342;PMS5003;17145;49.902;8.680;2023-02-01T02:27:27;41;34;
30342;PMS5003;17145;49.902;8.680;2023-02-01T02:30:13;33;28;
30342;PMS5003;17145;49.902;8.680;2023-02-01T02:33:02;25;24;
30342;PMS5003;17145;49.902;8.680;2023-02-01T02:35:43;26;24;
30342;PMS5003;17145;49.902;8.680;2023-02-01T02:38:20;23;23;
30342;PMS5003;17145;49.902;8.680;2023-02-01T02:40:55;38;30;
30342;PMS5003;17145;49.902;8.680;2023-02-01T02:43:31;33;27;
30342;PMS5003;17145;49.902;8.680;2023-02-01T02:46:05;30;22;
30342;PMS5003;17145;49.902;8.680;2023-02-01T02:48:41;27;25;
30342;PMS5003;17145;49.902;8.680;2023-02-01T02:51:14;29;23;
30342;PMS5003;17145;49.902;8.680;2023-02-01T02:53:48;26;26;
30342;PMS5003;17145;49.902;8.680;2023-02-01T02:56:23;30;27;
30342;PMS5003;17145;49.902;8.680;2023-02-01T02:58:53;29;25;
30342;PMS5003;17145;49.902;8.680;2023-02-01T03:01:22;29;26;
30342;PMS5003;17145;49.902;8.680;2023-02-01T03:03:50;37;34;
30342;PMS5003;17145;49.902;8.680;2023-02-01T03:06:17;25;24;
30342;PMS5003;17145;49.902;8.680;2023-02-01T03:08:45;38;31;
30342;PMS5003;17145;49.902;8.680;2023-02-01T03:11:13;27;26;
30342;PMS5003;17145;49.902;8.680;2023-02-01T03:13:43;29;26;
30342;PMS5003;17145;49.902;8.680;2023-02-01T03:16:18;26;23;
30342;PMS5003;17145;49.902;8.680;2023-02-01T03:18:50;23;22;
30342;PMS5003;17145;49.902;8.680;2023-02-01T03:21:22;27;24;
30342;PMS5003;17145;49.902;8.680;2023-02-01T03:23:53;28;26;
30342;PMS5003;17145;49.902;8.680;2023-02-01T03:26:26;27;23;
30342;PMS5003;17145;49.902;8.680;2023-02-01T03:28:59;28;26;
30342;PMS5003;17145;49.902;8.680;2023-02-01T03:31:32;28;26;
30342;PMS5003;17145;49.902;8.680;2023-02-01T03:34:00;28;26;
30342;PMS5003;17145;49.902;8.680;2023-02-01T03:36:28;34;27;
30342;PMS5003;17145;49.902;8.680;2023-02-01T03:39:02;32;31;
30342;PMS5003;17145;49.902;8.680;2023-02-01T03:41:37;28;26;
30342;PMS5003;17145;49.902;8.680;2023-02-01T03:44:10;32;28;
30342;PMS5003;17145;49.902;8.680;2023-02-01T03:46:41;30;28;
30342;PMS5003;17145;49.902;8.680;2023-02-01T03:49:13;31;27;
30342;PMS5003;17145;49.902;8.680;2023-02-01T03:51:47;25;25;
30342;PMS5003;17145;49.902;8.680;2023-02-01T03:54:17;37;29;
30342;PMS5003;17145;49.902;8.680;2023-02-01T03:56:46;35;33;
30342;PMS5003;17145;49.902;8.680;2023-02-01T03:59:16;41;26;
30342;PMS5003;17145;49.902;8.680;2023-02-01T04:01:43;40;29;
30342;PMS5003;17145;49.902;8.680;2023-02-01T04:04:11;38;36;
30342;PMS5003;17145;49.902;8.680;2023-02-01T04:06:39;42;36;
30342;PMS5003;17145;49.902;8.680;2023-02-01T04:09:06;56;52;
30342;PMS5003;17145;49.902;8.680;2023-02-01T04:11:33;53;46;
30342;PMS5003;17145;49.902;8.680;2023-02-01T04:14:00;41;32;
30342;PMS5003;17145;49.902;8.680;2023-02-01T04:16:28;38;33;
30342;PMS5003;17145;49.902;8.680;2023-02-01T04:18:55;34;30;
30342;PMS5003;17145;49.902;8.680;2023-02-01T04:21:22;44;29;
30342;PMS5003;17145;49.902;8.680;2023-02-01T04:23:50;34;33;
30342;PMS5003;17145;49.902;8.680;2023-02-01T04:26:17;32;30;
30342;PMS5003;17145;49.902;8.680;2023-02-01T04:28:45;33;32;
30342;PMS5003;17145;49.902;8.680;2023-02-01T04:31:13;37;34;
30342;PMS5003;17145;49.902;8.680;2023-02-01T04:33:40;44;40;
30342;PMS5003;17145;49.902;8.680;2023-02-01T04:36:08;29;25;
30342;PMS5003;17145;49.902;8.680;2023-02-01T04:38:35;39;34;
30342;PMS5003;17145;49.902;8.680;2023-02-01T04:41:03;30;26;
30342;PMS5003;17145;49.902;8.680;2023-02-01T04:43:30;33;29;
30342;PMS5003;17145;49.902;8.680;2023-02-01T04:45:58;34;33;
30342;PMS5003;17145;49.902;8.680;2023-02-01T04:48:25;40;28;
30342;PMS5003;17145;49.902;8.680;2023-02-01T04:50:52;33;32;
30342;PMS5003;17145;49.902;8.680;2023-02-01T04:53:20;27;22;
30342;PMS5003;17145;49.902;8.680;2023-02-01T04:55:47;35;31;
30342;PMS5003;17145;49.902;8.680;2023-02-01T04:58:16;37;35;
30342;PMS5003;17145;49.902;8.680;2023-02-01T05:00:43;44;36;
30342;PMS5003;17145;49.902;8.680;2023-02-01T05:03:11;37;33;
30342;PMS5003;17145;49.902;8.680;2023-02-01T05:05:38;31;31;
30342;PMS5003;17145;49.902;8.680;2023-02-01T05:08:06;36;34;
30342;PMS5003;17145;49.902;8.680;2023-02-01T05:10:34;27;25;
30342;PMS5003;17145;49.902;8.680;2023-02-01T05:13:02;45;35;
30342;PMS5003;17145;49.902;8.680;2023-02-01T05:15:29;35;29;
30342;PMS5003;17145;49.902;8.680;2023-02-01T05:17:57;35;32;
30342;PMS5003;17145;49.902;8.680;2023-02-01T05:20:25;39;32;
30342;PMS5003;17145;49.902;8.680;2023-02-01T05:22:53;45;32;
30342;PMS5003;17145;49.902;8.680;2023-02-01T05:25:20;42;34;
30342;PMS5003;17145;49.902;8.680;2023-02-01T05:27:47;58;36;
30342;PMS5003;17145;49.902;8.680;2023-02-01T05:30:15;44;35;
30342;PMS5003;17145;49.902;8.680;2023-02-01T05:32:43;41;34;
30342;PMS5003;17145;49.902;8.680;2023-02-01T05:35:10;41;34;
30342;PMS5003;17145;49.902;8.680;2023-02-01T05:37:38;57;38;
30342;PMS5003;17145;49.902;8.680;2023-02-01T05:40:05;58;37;
30342;PMS5003;17145;49.902;8.680;2023-02-01T05:42:34;50;41;
30342;PMS5003;17145;49.902;8.680;2023-02-01T05:45:01;47;39;
30342;PMS5003;17145;49.902;8.680;2023-02-01T05:47:29;50;39;
30342;PMS5003;17145;49.902;8.680;2023-02-01T05:49:57;49;41;
30342;PMS5003;17145;49.902;8.680;2023-02-01T05:52:24;52;41;
30342;PMS5003;17145;49.902;8.680;2023-02-01T05:54:52;67;43;
30342;PMS5003;17145;49.902;8.680;2023-02-01T05:57:19;47;42;
30342;PMS5003;17145;49.902;8.680;2023-02-01T05:59:47;47;37;
30342;PMS5003;17145;49.902;8.680;2023-02-01T06:02:14;57;41;
30342;PMS5003;17145;49.902;8.680;2023-02-01T06:04:42;49;45;
30342;PMS5003;17145;49.902;8.680;2023-02-01T06:07:10;48;41;
30342;PMS5003;17145;49.902;8.680;2023-02-01T06:09:37;43;38;
30342;PMS5003;17145;49.902;8.680;2023-02-01T06:12:04;67;45;
30342;PMS5003;17145;49.902;8.680;2023-02-01T06:14:32;43;38;
30342;PMS5003;17145;49.902;8.680;2023-02-01T06:17:00;42;38;
30342;PMS5003;17145;49.902;8.680;2023-02-01T06:19:28;48;39;
30342;PMS5003;17145;49.902;8.680;2023-02-01T06:21:55;57;38;
30342;PMS5003;17145;49.902;8.680;2023-02-01T06:24:22;49;44;
30342;PMS5003;17145;49.902;8.680;2023-02-01T06:26:50;51;44;
30342;PMS5003;17145;49.902;8.680;2023-02-01T06:29:17;44;39;
30342;PMS5003;17145;49.902;8.680;2023-02-01T06:31:44;59;42;
30342;PMS5003;17145;49.902;8.680;2023-02-01T06:34:11;55;46;
30342;PMS5003;17145;49.902;8.680;2023-02-01T06:36:39;63;45;
30342;PMS5003;17145;49.902;8.680;2023-02-01T06:39:06;51;44;
30342;PMS5003;17145;49.902;8.680;2023-02-01T06:41:34;53;44;
30342;PMS5003;17145;49.902;8.680;2023-02-01T06:44:01;40;38;
30342;PMS5003;17145;49.902;8.680;2023-02-01T06:46:29;47;41;
30342;PMS5003;17145;49.902;8.680;2023-02-01T06:48:56;49;37;
30342;PMS5003;17145;49.902;8.680;2023-02-01T06:51:24;52;40;
30342;PMS5003;17145;49.902;8.680;2023-02-01T06:53:53;61;47;
30342;PMS5003;17145;49.902;8.680;2023-02-01T06:56:20;66;41;
30342;PMS5003;17145;49.902;8.680;2023-02-01T06:58:48;58;42;
30342;PMS5003;17145;49.902;8.680;2023-02-01T07:01:16;52;38;
30342;PMS5003;17145;49.902;8.680;2023-02-01T07:03:46;49;38;
30342;PMS5003;17145;49.902;8.680;2023-02-01T07:06:14;60;38;
30342;PMS5003;17145;49.902;8.680;2023-02-01T07:08:42;60;41;
30342;PMS5003;17145;49.902;8.680;2023-02-01T07:11:10;44;38;
30342;PMS5003;17145;49.902;8.680;2023-02-01T07:13:39;51;45;
30342;PMS5003;17145;49.902;8.680;2023-02-01T07:16:09;51;38;
30342;PMS5003;17145;49.902;8.680;2023-02-01T07:18:38;55;44;
30342;PMS5003;17145;49.902;8.680;2023-02-01T07:21:06;52;37;
30342;PMS5003;17145;49.902;8.680;2023-02-01T07:23:34;38;33;
30342;PMS5003;17145;49.902;8.680;2023-02-01T07:26:04;58;42;
30342;PMS5003;17145;49.902;8.680;2023-02-01T07:28:34;60;44;
30342;PMS5003;17145;49.902;8.680;2023-02-01T07:31:02;59;43;
30342;PMS5003;17145;49.902;8.680;2023-02-01T07:33:30;54;40;
30342;PMS5003;17145;49.902;8.680;2023-02-01T07:36:00;51;44;
30342;PMS5003;17145;49.902;8.680;2023-02-01T07:38:28;50;44;
30342;PMS5003;17145;49.902;8.680;2023-02-01T07:40:57;59;41;
30342;PMS5003;17145;49.902;8.680;2023-02-01T07:43:25;55;47;
30342;PMS5003;17145;49.902;8.680;2023-02-01T07:45:53;51;43;
30342;PMS5003;17145;49.902;8.680;2023-02-01T07:48:21;57;43;
30342;PMS5003;17145;49.902;8.680;2023-02-01T07:53:25;47;41;
30342;PMS5003;17145;49.902;8.680;2023-02-01T07:55:53;55;44;
30342;PMS5003;17145;49.902;8.680;2023-02-01T07:58:20;55;44;
30342;PMS5003;17145;49.902;8.680;2023-02-01T08:00:48;54;45;
30342;PMS5003;17145;49.902;8.680;2023-02-01T08:03:15;58;42;
30342;PMS5003;17145;49.902;8.680;2023-02-01T08:05:42;58;47;
30342;PMS5003;17145;49.902;8.680;2023-02-01T08:08:10;44;41;
30342;PMS5003;17145;49.902;8.680;2023-02-01T08:10:37;54;38;
30342;PMS5003;17145;49.902;8.680;2023-02-01T08:13:04;58;41;
30342;PMS5003;17145;49.902;8.680;2023-02-01T08:15:32;51;41;
30342;PMS5003;17145;49.902;8.680;2023-02-01T08:17:59;54;42;
30342;PMS5003;17145;49.902;8.680;2023-02-01T08:20:27;54;46;
30342;PMS5003;17145;49.902;8.680;2023-02-01T08:22:55;58;40;
30342;PMS5003;17145;49.902;8.680;2023-02-01T08:25:23;50;37;
30342;PMS5003;17145;49.902;8.680;2023-02-01T08:27:51;50;43;
30342;PMS5003;17145;49.902;8.680;2023-02-01T08:30:18;47;41;
30342;PMS5003;17145;49.902;8.680;2023-02-01T08:32:46;43;34;
30342;PMS5003;17145;49.902;8.680;2023-02-01T08:35:14;40;34;
30342;PMS5003;17145;49.902;8.680;2023-02-01T08:37:42;44;34;
30342;PMS5003;17145;49.902;8.680;2023-02-01T08:40:09;51;39;
30342;PMS5003;17145;49.902;8.680;2023-02-01T08:42:38;52;41;
30342;PMS5003;17145;49.902;8.680;2023-02-01T08:45:06;46;39;
30342;PMS5003;17145;49.902;8.680;2023-02-01T08:47:34;41;37;
30342;PMS5003;17145;49.902;8.680;2023-02-01T08:50:02;53;43;
30342;PMS5003;17145;49.902;8.680;2023-02-01T08:52:30;51;44;
30342;PMS5003;17145;49.902;8.680;2023-02-01T08:54:57;65;46;
30342;PMS5003;17145;49.902;8.680;2023-02-01T08:57:25;55;41;
30342;PMS5003;17145;49.902;8.680;2023-02-01T08:59:52;60;46;
30342;PMS5003;17145;49.902;8.680;2023-02-01T09:02:20;66;48;
30342;PMS5003;17145;49.902;8.680;2023-02-01T09:04:47;71;47;
30342;PMS5003;17145;49.902;8.680;2023-02-01T09:07:15;43;37;
30342;PMS5003;17145;49.902;8.680;2023-02-01T09:09:43;48;45;
30342;PMS5003;17145;49.902;8.680;2023-02-01T09:12:10;45;40;
30342;PMS5003;17145;49.902;8.680;2023-02-01T09:14:38;60;45;
30342;PMS5003;17145;49.902;8.680;2023-02-01T09:17:05;53;43;
30342;PMS5003;17145;49.902;8.680;2023-02-01T09:19:33;50;38;
30342;PMS5003;17145;49.902;8.680;2023-02-01T09:22:01;48;39;
30342;PMS5003;17145;49.902;8.680;2023-02-01T09:24:28;56;46;
30342;PMS5003;17145;49.902;8.680;2023-02-01T09:26:56;47;42;
30342;PMS5003;17145;49.902;8.680;2023-02-01T09:29:24;43;39;
30342;PMS5003;17145;49.902;8.680;2023-02-01T09:31:51;60;39;
30342;PMS5003;17145;49.902;8.680;2023-02-01T09:34:19;52;46;
30342;PMS5003;17145;49.902;8.680;2023-02-01T09:36:46;52;42;
30342;PMS5003;17145;49.902;8.680;2023-02-01T09:39:13;59;42;
30342;PMS5003;17145;49.902;8.680;2023-02-01T09:41:44;45;43;
30342;PMS5003;17145;49.902;8.680;2023-02-01T09:44:23;42;36;
30342;PMS5003;17145;49.902;8.680;2023-02-01T09:47:00;48;39;
30342;PMS5003;17145;49.902;8.680;2023-02-01T09:49:29;57;40;
30342;PMS5003;17145;49.902;8.680;2023-02-01T09:51:59;59;39;
30342;PMS5003;17145;49.902;8.680;2023-02-01T09:54:37;46;41;
30342;PMS5003;17145;49.902;8.680;2023-02-01T09:57:11;46;40;
30342;PMS5003;17145;49.902;8.680;2023-02-01T09:59:46;56;43;
30342;PMS5003;17145;49.902;8.680;2023-02-01T10:02:18;63;43;
30342;PMS5003;17145;49.902;8.680;2023-02-01T10:04:48;53;47;
30342;PMS5003;17145;49.902;8.680;2023-02-01T10:07:19;60;46;
30342;PMS5003;17145;49.902;8.680;2023-02-01T10:09:58;56;43;
30342;PMS5003;17145;49.902;8.680;2023-02-01T10:12:35;55;46;
30342;PMS5003;17145;49.902;8.680;2023-02-01T10:15:15;62;47;
30342;PMS5003;17145;49.902;8.680;2023-02-01T10:17:55;53;39;
30342;PMS5003;17145;49.902;8.680;2023-02-01T10:20:34;67;46;
30342;PMS5003;17145;49.902;8.680;2023-02-01T10:23:10;65;42;
30342;PMS5003;17145;49.902;8.680;2023-02-01T10:25:49;50;44;
30342;PMS5003;17145;49.902;8.680;2023-02-01T10:28:21;68;51;
30342;PMS5003;17145;49.902;8.680;2023-02-01T10:30:52;80;58;
30342;PMS5003;17145;49.902;8.680;2023-02-01T10:33:25;72;57;
30342;PMS5003;17145;49.902;8.680;2023-02-01T10:35:59;73;55;
30342;PMS5003;17145;49.902;8.680;2023-02-01T10:38:30;79;66;
30342;PMS5003;17145;49.902;8.680;2023-02-01T10:41:01;72;66;
30342;PMS5003;17145;49.902;8.680;2023-02-01T10:43:30;85;67;
30342;PMS5003;17145;49.902;8.680;2023-02-01T10:45:57;81;62;
30342;PMS5003;17145;49.902;8.680;2023-02-01T10:48:25;73;69;
30342;PMS5003;17145;49.902;8.680;2023-02-01T10:50:54;81;63;
30342;PMS5003;17145;49.902;8.680;2023-02-01T10:53:25;69;59;
30342;PMS5003;17145;49.902;8.680;2023-02-01T10:56:05;70;55;
30342;PMS5003;17145;49.902;8.680;2023-02-01T10:58:34;64;52;
30342;PMS5003;17145;49.902;8.680;2023-02-01T11:01:08;55;51;
30342;PMS5003;17145;49.902;8.680;2023-02-01T11:03:41;58;49;
30342;PMS5003;17145;49.902;8.680;2023-02-01T11:06:13;62;48;
30342;PMS5003;17145;49.902;8.680;2023-02-01T11:08:47;45;42;
30342;PMS5003;17145;49.902;8.680;2023-02-01T11:11:17;54;41;
30342;PMS5003;17145;49.902;8.680;2023-02-01T11:13:45;56;40;
30342;PMS5003;17145;49.902;8.680;2023-02-01T11:16:20;64;48;
30342;PMS5003;17145;49.902;8.680;2023-02-01T11:18:52;54;41;
30342;PMS5003;17145;49.902;8.680;2023-02-01T11:21:21;54;41;
30342;PMS5003;17145;49.902;8.680;2023-02-01T11:23:49;54;44;
30342;PMS5003;17145;49.902;8.680;2023-02-01T11:26:20;55;47;
30342;PMS5003;17145;49.902;8.680;2023-02-01T11:28:52;52;43;
30342;PMS5003;17145;49.902;8.680;2023-02-01T11:31:24;58;43;
30342;PMS5003;17145;49.902;8.680;2023-02-01T11:33:53;55;44;
30342;PMS5003;17145;49.902;8.680;2023-02-01T11:36:26;58;47;
30342;PMS5003;17145;49.902;8.680;2023-02-01T11:41:40;63;45;
30342;PMS5003;17145;49.902;8.680;2023-02-01T11:46:46;62;49;
30342;PMS5003;17145;49.902;8.680;2023-02-01T11:49:19;60;48;
30342;PMS5003;17145;49.902;8.680;2023-02-01T11:51:56;51;48;
30342;PMS5003;17145;49.902;8.680;2023-02-01T11:54:37;49;48;
30342;PMS5003;17145;49.902;8.680;2023-02-01T11:57:20;63;45;
30342;PMS5003;17145;49.902;8.680;2023-02-01T12:00:01;55;44;
30342;PMS5003;17145;49.902;8.680;2023-02-01T12:02:49;50;41;
30342;PMS5003;17145;49.902;8.680;2023-02-01T12:05:31;44;40;
30342;PMS5003;17145;49.902;8.680;2023-02-01T12:08:13;64;42;
30342;PMS5003;17145;49.902;8.680;2023-02-01T12:10:53;58;48;
30342;PMS5003;17145;49.902;8.680;2023-02-01T12:13:36;58;41;
30342;PMS5003;17145;49.902;8.680;2023-02-01T12:16:16;67;45;
30342;PMS5003;17145;49.902;8.680;2023-02-01T12:18:54;54;42;
30342;PMS5003;17145;49.902;8.680;2023-02-01T12:21:39;58;42;
30342;PMS5003;17145;49.902;8.680;2023-02-01T12:24:24;55;48;
30342;PMS5003;17145;49.902;8.680;2023-02-01T12:27:10;61;45;
30342;PMS5003;17145;49.902;8.680;2023-02-01T12:29:53;45;42;
30342;PMS5003;17145;49.902;8.680;2023-02-01T12:32:32;49;42;
30342;PMS5003;17145;49.902;8.680;2023-02-01T12:35:13;69;51;
30342;PMS5003;17145;49.902;8.680;2023-02-01T12:38:04;42;38;
30342;PMS5003;17145;49.902;8.680;2023-02-01T12:40:45;49;45;
30342;PMS5003;17145;49.902;8.680;2023-02-01T12:43:25;46;42;
30342;PMS5003;17145;49.902;8.680;2023-02-01T12:46:02;60;46;
30342;PMS5003;17145;49.902;8.680;2023-02-01T12:48:35;56;42;
30342;PMS5003;17145;49.902;8.680;2023-02-01T12:51:09;55;42;
30342;PMS5003;17145;49.902;8.680;2023-02-01T12:53:44;48;43;
30342;PMS5003;17145;49.902;8.680;2023-02-01T12:56:20;49;42;
30342;PMS5003;17145;49.902;8.680;2023-02-01T12:58:52;48;38;
30342;PMS5003;17145;49.902;8.680;2023-02-01T13:01:22;56;44;
30342;PMS5003;17145;49.902;8.680;2023-02-01T13:03:57;60;46;
30342;PMS5003;17145;49.902;8.680;2023-02-01T13:06:31;63;42;
30342;PMS5003;17145;49.902;8.680;2023-02-01T13:09:05;48;44;
30342;PMS5003;17145;49.902;8.680;2023-02-01T13:11:42;49;37;
30342;PMS5003;17145;49.902;8.680;2023-02-01T13:14:13;49;37;
30342;PMS5003;17145;49.902;8.680;2023-02-01T13:16:51;53;44;
30342;PMS5003;17145;49.902;8.680;2023-02-01T13:19:24;52;44;
30342;PMS5003;17145;49.902;8.680;2023-02-01T13:21:57;49;41;
30342;PMS5003;17145;49.902;8.680;2023-02-01T13:24:30;60;41;
30342;PMS5003;17145;49.902;8.680;2023-02-01T13:27:02;48;38;
30342;PMS5003;17145;49.902;8.680;2023-02-01T13:29:30;59;44;
30342;PMS5003;17145;49.902;8.680;2023-02-01T13:32:05;49;42;
30342;PMS5003;17145;49.902;8.680;2023-02-01T13:34:48;47;38;
30342;PMS5003;17145;49.902;8.680;2023-02-01T13:37:34;45;40;
30342;PMS5003;17145;49.902;8.680;2023-02-01T13:42:51;47;38;
30342;PMS5003;17145;49.902;8.680;2023-02-01T13:45:22;47;34;
30342;PMS5003;17145;49.902;8.680;2023-02-01T13:47:52;54;41;
30342;PMS5003;17145;49.902;8.680;2023-02-01T13:50:23;67;44;
30342;PMS5003;17145;49.902;8.680;2023-02-01T13:52:55;62;41;
30342;PMS5003;17145;49.902;8.680;2023-02-01T13:55:26;48;37;
30342;PMS5003;17145;49.902;8.680;2023-02-01T13:58:02;49;44;
30342;PMS5003;17145;49.902;8.680;2023-02-01T14:00:33;49;42;
30342;PMS5003;17145;49.902;8.680;2023-02-01T14:03:07;67;44;
30342;PMS5003;17145;49.902;8.680;2023-02-01T14:08:23;58;44;
30342;PMS5003;17145;49.902;8.680;2023-02-01T14:10:57;59;42;
30342;PMS5003;17145;49.902;8.680;2023-02-01T14:13:26;51;40;
30342;PMS5003;17145;49.902;8.680;2023-02-01T14:21:22;55;37;
30342;PMS5003;17145;49.902;8.680;2023-02-01T14:23:56;45;36;
30342;PMS5003;17145;49.902;8.680;2023-02-01T14:26:40;57;38;
30342;PMS5003;17145;49.902;8.680;2023-02-01T14:29:21;44;38;
30342;PMS5003;17145;49.902;8.680;2023-02-01T14:31:53;45;38;
30342;PMS5003;17145;49.902;8.680;2023-02-01T14:34:29;53;45;
30342;PMS5003;17145;49.902;8.680;2023-02-01T14:37:03;58;44;
30342;PMS5003;17145;49.902;8.680;2023-02-01T14:39:40;47;42;
30342;PMS5003;17145;49.902;8.680;2023-02-01T14:42:19;47;40;
30342;PMS5003;17145;49.902;8.680;2023-02-01T14:44:49;41;34;
30342;PMS5003;17145;49.902;8.680;2023-02-01T14:49:55;56;41;
30342;PMS5003;17145;49.902;8.680;2023-02-01T14:52:29;46;35;
30342;PMS5003;17145;49.902;8.680;2023-02-01T14:55:02;56;38;
30342;PMS5003;17145;49.902;8.680;2023-02-01T14:57:34;37;31;
30342;PMS5003;17145;49.902;8.680;2023-02-01T15:00:07;42;38;
30342;PMS5003;17145;49.902;8.680;2023-02-01T15:02:40;39;38;
30342;PMS5003;17145;49.902;8.680;2023-02-01T15:07:53;45;38;
30342;PMS5003;17145;49.902;8.680;2023-02-01T15:10:21;49;39;
30342;PMS5003;17145;49.902;8.680;2023-02-01T15:12:49;41;35;
30342;PMS5003;17145;49.902;8.680;2023-02-01T15:15:18;48;41;
30342;PMS5003;17145;49.902;8.680;2023-02-01T15:17:50;38;34;
30342;PMS5003;17145;49.902;8.680;2023-02-01T15:20:20;50;38;
30342;PMS5003;17145;49.902;8.680;2023-02-01T15:22:53;48;37;
30342;PMS5003;17145;49.902;8.680;2023-02-01T15:25:25;42;37;
30342;PMS5003;17145;49.902;8.680;2023-02-01T15:27:53;39;37;
30342;PMS5003;17145;49.902;8.680;2023-02-01T15:30:25;49;35;
30342;PMS5003;17145;49.902;8.680;2023-02-01T15:35:33;38;28;
30342;PMS5003;17145;49.902;8.680;2023-02-01T15:40:53;45;38;
30342;PMS5003;17145;49.902;8.680;2023-02-01T15:43:22;47;32;
30342;PMS5003;17145;49.902;8.680;2023-02-01T15:45:51;53;35;
30342;PMS5003;17145;49.902;8.680;2023-02-01T15:48:20;39;31;
30342;PMS5003;17145;49.902;8.680;2023-02-01T15:50:51;37;33;
30342;PMS5003;17145;49.902;8.680;2023-02-01T15:53:20;46;34;
30342;PMS5003;17145;49.902;8.680;2023-02-01T15:55:53;37;34;
30342;PMS5003;17145;49.902;8.680;2023-02-01T15:58:23;43;32;
30342;PMS5003;17145;49.902;8.680;2023-02-01T16:00:53;33;30;
30342;PMS5003;17145;49.902;8.680;2023-02-01T16:03:25;49;32;
30342;PMS5003;17145;49.902;8.680;2023-02-01T16:05:59;35;31;
30342;PMS5003;17145;49.902;8.680;2023-02-01T16:08:28;58;34;
30342;PMS5003;17145;49.902;8.680;2023-02-01T16:11:00;34;27;
30342;PMS5003;17145;49.902;8.680;2023-02-01T16:13:32;31;30;
30342;PMS5003;17145;49.902;8.680;2023-02-01T16:16:00;38;31;
30342;PMS5003;17145;49.902;8.680;2023-02-01T16:18:28;42;27;
30342;PMS5003;17145;49.902;8.680;2023-02-01T16:20:55;34;28;
30342;PMS5003;17145;49.902;8.680;2023-02-01T16:23:22;35;30;
30342;PMS5003;17145;49.902;8.680;2023-02-01T16:25:50;41;35;
30342;PMS5003;17145;49.902;8.680;2023-02-01T16:28:17;34;27;
30342;PMS5003;17145;49.902;8.680;2023-02-01T16:30:44;32;32;
30342;PMS5003;17145;49.902;8.680;2023-02-01T16:33:13;37;34;
30342;PMS5003;17145;49.902;8.680;2023-02-01T16:35:45;38;30;
30342;PMS5003;17145;49.902;8.680;2023-02-01T16:38:13;39;32;
30342;PMS5003;17145;49.902;8.680;2023-02-01T16:40:41;34;24;
30342;PMS5003;17145;49.902;8.680;2023-02-01T16:43:11;47;32;
30342;PMS5003;17145;49.902;8.680;2023-02-01T16:45:40;42;30;
30342;PMS5003;17145;49.902;8.680;2023-02-01T16:48:10;34;27;
30342;PMS5003;17145;49.902;8.680;2023-02-01T16:50:46;35;30;
30342;PMS5003;17145;49.902;8.680;2023-02-01T16:53:16;34;31;
30342;PMS5003;17145;49.902;8.680;2023-02-01T16:55:44;42;35;
30342;PMS5003;17145;49.902;8.680;2023-02-01T16:58:12;34;27;
30342;PMS5003;17145;49.902;8.680;2023-02-01T17:00:40;50;38;
30342;PMS5003;17145;49.902;8.680;2023-02-01T17:03:08;39;34;
30342;PMS5003;17145;49.902;8.680;2023-02-01T17:05:36;49;32;
30342;PMS5003;17145;49.902;8.680;2023-02-01T17:08:05;37;35;
30342;PMS5003;17145;49.902;8.680;2023-02-01T17:10:34;39;35;
30342;PMS5003;17145;49.902;8.680;2023-02-01T17:13:02;48;37;
30342;PMS5003;17145;49.902;8.680;2023-02-01T17:15:31;48;40;